createdAt,value
2018-07-17T00:00:57.784Z,67.60
2018-07-17T00:06:00.852Z,67.70
2018-07-17T00:11:03.987Z,67.90
2018-07-17T00:16:07.069Z,67.70
2018-07-17T00:21:10.580Z,68.10
2018-07-17T00:26:13.641Z,67.30
2018-07-17T00:31:16.697Z,67.70
2018-07-17T00:36:19.741Z,68.20
2018-07-17T00:41:22.797Z,68.40
2018-07-17T00:46:25.857Z,68.20
2018-07-17T00:51:28.910Z,68.30
2018-07-17T00:56:32.025Z,68.40
2018-07-17T01:01:40.601Z,68.30
2018-07-17T01:06:49.101Z,68.90
2018-07-17T01:11:57.647Z,70.10
2018-07-17T01:17:00.700Z,70.70
2018-07-17T01:22:03.754Z,70.60
2018-07-17T01:27:06.801Z,70.50
2018-07-17T01:32:09.860Z,70.80
2018-07-17T01:37:12.928Z,71.00
2018-07-17T01:42:15.998Z,71.00
2018-07-17T01:47:19.068Z,71.00
2018-07-17T01:52:22.130Z,71.40
2018-07-17T01:57:25.204Z,71.40
2018-07-17T02:02:28.302Z,71.70
2018-07-17T02:07:31.369Z,71.70
2018-07-17T02:12:34.437Z,71.90
2018-07-17T02:17:37.492Z,72.50
2018-07-17T02:22:40.561Z,72.60
2018-07-17T02:27:43.644Z,72.40
2018-07-17T02:32:46.694Z,72.00
2018-07-17T02:37:49.786Z,72.30
2018-07-17T02:42:52.865Z,72.30
2018-07-17T02:47:55.945Z,72.10
2018-07-17T02:52:59.020Z,72.10
2018-07-17T02:58:02.101Z,72.10
2018-07-17T03:03:05.263Z,72.60
2018-07-17T03:08:08.341Z,72.70
2018-07-17T03:13:11.398Z,72.80
2018-07-17T03:18:14.465Z,72.70
2018-07-17T03:23:17.537Z,72.30
2018-07-17T03:28:20.585Z,72.50
2018-07-17T03:33:23.662Z,72.70
2018-07-17T03:38:26.716Z,73.00
2018-07-17T03:43:29.773Z,73.40
2018-07-17T03:48:32.845Z,73.60
2018-07-17T03:53:35.913Z,73.70
2018-07-17T03:58:38.993Z,73.70
2018-07-17T04:03:42.086Z,73.70
2018-07-17T04:08:45.199Z,73.90
2018-07-17T04:13:48.212Z,74.30
2018-07-17T04:18:51.281Z,74.70
2018-07-17T04:23:54.341Z,74.80
2018-07-17T04:28:57.404Z,74.80
2018-07-17T04:34:00.482Z,74.70
2018-07-17T04:39:03.996Z,74.50
2018-07-17T04:44:07.251Z,74.50
2018-07-17T04:49:10.335Z,74.40
2018-07-17T04:54:13.409Z,74.50
2018-07-17T04:59:16.489Z,74.40
2018-07-17T05:04:19.557Z,74.10
2018-07-17T05:09:23.039Z,73.90
2018-07-17T05:14:26.238Z,73.90
2018-07-17T05:19:29.288Z,74.30
2018-07-17T05:24:32.389Z,74.00
2018-07-17T05:29:35.441Z,73.60
2018-07-17T05:34:38.489Z,73.40
2018-07-17T05:39:41.557Z,72.80
2018-07-17T05:44:44.598Z,72.30
2018-07-17T05:49:47.641Z,71.60
2018-07-17T05:54:50.681Z,70.20
2018-07-17T05:59:53.738Z,69.20
2018-07-17T06:04:56.776Z,68.10
2018-07-17T06:09:59.841Z,67.30
2018-07-17T06:15:02.897Z,66.80
2018-07-17T06:20:07.239Z,65.90
2018-07-17T06:25:10.610Z,65.90
2018-07-17T06:30:13.677Z,65.40
2018-07-17T06:35:16.740Z,63.90
2018-07-17T06:40:19.772Z,63.30
2018-07-17T06:45:22.857Z,61.60
2018-07-17T06:50:25.930Z,61.20
2018-07-17T06:55:28.948Z,60.70
2018-07-17T07:00:32.011Z,60.00
2018-07-17T07:05:35.161Z,59.10
2018-07-17T07:10:38.212Z,59.00
2018-07-17T07:15:41.272Z,58.50
2018-07-17T07:20:44.328Z,58.00
2018-07-17T07:25:47.381Z,56.50
2018-07-17T07:30:50.436Z,56.20
2018-07-17T07:35:53.480Z,55.40
2018-07-17T07:40:56.540Z,54.70
2018-07-17T07:45:59.596Z,55.00
2018-07-17T07:51:02.653Z,54.30
2018-07-17T07:56:05.949Z,53.70
2018-07-17T08:01:08.992Z,52.90
2018-07-17T08:06:12.053Z,51.20
2018-07-17T08:11:15.125Z,51.10
2018-07-17T08:16:18.261Z,51.10
2018-07-17T08:21:21.317Z,50.80
2018-07-17T08:26:24.368Z,49.10
2018-07-17T08:31:27.424Z,47.00
2018-07-17T08:36:30.485Z,46.40
2018-07-17T08:41:33.536Z,45.70
2018-07-17T08:46:36.600Z,46.00
2018-07-17T08:51:39.669Z,44.70
2018-07-17T08:56:42.716Z,44.80
2018-07-17T09:01:45.787Z,43.20
2018-07-17T09:06:48.864Z,41.70
2018-07-17T09:11:51.910Z,40.50
2018-07-17T09:16:54.961Z,40.70
2018-07-17T09:21:58.013Z,39.80
2018-07-17T09:27:01.065Z,39.00
2018-07-17T09:32:04.114Z,37.70
2018-07-17T09:37:07.175Z,37.90
2018-07-17T09:42:10.215Z,36.80
2018-07-17T09:47:13.274Z,35.70
2018-07-17T09:52:16.337Z,35.80
2018-07-17T09:57:19.393Z,35.90
2018-07-17T10:02:28.300Z,35.70
2018-07-17T10:07:31.345Z,35.20
2018-07-17T10:12:34.387Z,35.20
2018-07-17T10:17:37.426Z,34.80
2018-07-17T10:22:40.473Z,34.20
2018-07-17T10:27:43.521Z,34.80
2018-07-17T10:32:46.621Z,35.40
2018-07-17T10:37:49.703Z,35.00
2018-07-17T10:42:52.752Z,34.50
2018-07-17T10:47:55.922Z,33.50
2018-07-17T10:52:58.972Z,34.10
2018-07-17T10:58:02.044Z,33.20
2018-07-17T11:03:05.093Z,33.50
2018-07-17T11:08:08.144Z,32.30
2018-07-17T11:13:11.200Z,32.40
2018-07-17T11:18:14.236Z,33.80
2018-07-17T11:23:17.296Z,34.50
2018-07-17T11:28:20.328Z,33.40
2018-07-17T11:33:23.384Z,33.50
2018-07-17T11:38:26.480Z,34.50
2018-07-17T11:43:29.516Z,34.10
2018-07-17T11:48:32.567Z,34.80
2018-07-17T11:53:35.662Z,33.80
2018-07-17T11:58:38.700Z,33.40
2018-07-17T12:03:41.756Z,34.40
2018-07-17T12:08:45.622Z,34.90
2018-07-17T12:13:48.771Z,34.10
2018-07-17T12:18:51.831Z,34.30
2018-07-17T12:23:54.877Z,34.30
2018-07-17T12:28:57.925Z,34.40
2018-07-17T12:34:00.985Z,34.60
2018-07-17T12:39:05.114Z,34.20
2018-07-17T12:44:08.273Z,34.90
2018-07-17T12:49:11.324Z,33.80
2018-07-17T12:54:14.364Z,34.50
2018-07-17T12:59:17.422Z,34.10
2018-07-17T13:04:20.465Z,34.10
2018-07-17T13:09:23.656Z,33.90
2018-07-17T13:14:26.549Z,33.30
2018-07-17T13:19:29.604Z,34.10
2018-07-17T13:24:32.658Z,33.60
2018-07-17T13:29:35.704Z,32.60
2018-07-17T13:34:38.741Z,32.70
2018-07-17T13:39:41.788Z,32.30
2018-07-17T13:44:44.917Z,32.30
2018-07-17T13:49:47.936Z,31.70
2018-07-17T13:54:50.996Z,32.90
2018-07-17T13:59:54.118Z,33.10
2018-07-17T14:04:57.144Z,32.90
2018-07-17T14:10:00.192Z,33.30
2018-07-17T14:15:03.279Z,32.40
2018-07-17T14:20:06.335Z,32.50
2018-07-17T14:25:09.365Z,32.10
2018-07-17T14:30:12.484Z,34.00
2018-07-17T14:35:15.489Z,32.70
2018-07-17T14:40:18.561Z,34.10
2018-07-17T14:45:21.612Z,33.30
2018-07-17T14:50:24.664Z,32.60
2018-07-17T14:55:27.713Z,32.50
2018-07-17T15:00:30.747Z,33.10
2018-07-17T15:05:33.802Z,34.00
2018-07-17T15:10:36.853Z,33.50
2018-07-17T15:15:40.029Z,32.90
2018-07-17T15:20:42.932Z,32.20
2018-07-17T15:25:45.982Z,32.20
2018-07-17T15:30:49.025Z,32.90
2018-07-17T15:35:52.081Z,32.90
2018-07-17T15:40:55.133Z,33.60
2018-07-17T15:45:58.210Z,33.70
2018-07-17T15:51:01.292Z,33.60
2018-07-17T15:56:04.351Z,34.30
2018-07-17T16:01:07.409Z,34.20
2018-07-17T16:06:10.498Z,33.60
2018-07-17T16:11:13.501Z,33.90
2018-07-17T16:16:16.563Z,33.60
2018-07-17T16:21:19.629Z,33.20
2018-07-17T16:26:22.680Z,34.70
2018-07-17T16:31:25.736Z,34.20
2018-07-17T16:36:28.788Z,34.30
2018-07-17T16:41:31.848Z,33.90
2018-07-17T16:46:34.897Z,33.60
2018-07-17T16:51:37.976Z,32.90
2018-07-17T16:56:41.038Z,32.90
2018-07-17T17:01:44.088Z,33.40
2018-07-17T17:06:47.326Z,33.60
2018-07-17T17:11:50.376Z,33.00
2018-07-17T17:16:53.433Z,32.40
2018-07-17T17:21:56.497Z,32.00
2018-07-17T17:26:59.557Z,31.80
2018-07-17T17:32:02.622Z,31.80
2018-07-17T17:37:05.680Z,31.50
2018-07-17T17:42:08.727Z,31.70
2018-07-17T17:47:11.764Z,32.30
2018-07-17T17:52:14.829Z,33.00
2018-07-17T17:57:17.865Z,34.40
2018-07-17T18:02:20.914Z,34.40
2018-07-17T18:07:23.973Z,34.30
2018-07-17T18:12:27.029Z,34.70
2018-07-17T18:17:30.099Z,35.70
2018-07-17T18:22:33.149Z,36.00
2018-07-17T18:27:36.205Z,36.20
2018-07-17T18:32:39.277Z,36.60
2018-07-17T18:37:42.320Z,36.90
2018-07-17T18:42:45.364Z,37.50
2018-07-17T18:47:48.460Z,37.80
2018-07-17T18:52:51.500Z,38.30
2018-07-17T18:57:54.573Z,38.80
2018-07-17T19:02:57.629Z,38.90
2018-07-17T19:08:00.681Z,39.50
2018-07-17T19:13:03.733Z,39.40
2018-07-17T19:18:06.772Z,39.70
2018-07-17T19:23:09.833Z,39.80
2018-07-17T19:28:12.900Z,40.60
2018-07-17T19:33:15.959Z,40.80
2018-07-17T19:38:19.025Z,41.00
2018-07-17T19:43:22.077Z,41.50
2018-07-17T19:48:25.133Z,41.80
2018-07-17T19:53:28.172Z,42.10
2018-07-17T19:58:31.209Z,42.20
2018-07-17T20:03:34.268Z,42.40
2018-07-17T20:08:37.404Z,42.70
2018-07-17T20:13:40.409Z,43.00
2018-07-17T20:18:43.464Z,43.50
2018-07-17T20:23:46.501Z,44.50
2018-07-17T20:28:49.533Z,45.10
2018-07-17T20:33:52.653Z,45.70
2018-07-17T20:38:55.708Z,46.30
2018-07-17T20:43:58.764Z,46.80
2018-07-17T20:49:01.820Z,47.20
2018-07-17T20:54:04.877Z,48.10
2018-07-17T20:59:07.920Z,48.80
2018-07-17T21:04:10.984Z,49.60
2018-07-17T21:09:14.056Z,50.60
2018-07-17T21:14:17.084Z,51.20
2018-07-17T21:19:20.136Z,51.80
2018-07-17T21:24:23.193Z,52.40
2018-07-17T21:29:26.237Z,52.90
2018-07-17T21:34:29.276Z,53.90
2018-07-17T21:39:32.332Z,54.80
2018-07-17T21:44:35.364Z,55.30
2018-07-17T21:49:38.472Z,55.90
2018-07-17T21:54:41.513Z,56.90
2018-07-17T21:59:44.645Z,58.00
2018-07-17T22:04:47.705Z,58.50
2018-07-17T22:09:50.772Z,59.10
2018-07-17T22:14:53.812Z,59.10
2018-07-17T22:19:56.876Z,59.20
2018-07-17T22:24:59.938Z,59.00
2018-07-17T22:30:03.006Z,58.70
2018-07-17T22:35:06.136Z,58.50
2018-07-17T22:40:09.189Z,58.50
2018-07-17T22:45:12.237Z,58.30
2018-07-17T22:50:15.268Z,58.30
2018-07-17T22:55:18.329Z,58.40
2018-07-17T23:00:21.368Z,58.60
2018-07-17T23:05:24.429Z,58.70
2018-07-17T23:10:27.481Z,58.80
2018-07-17T23:15:30.546Z,58.80
2018-07-17T23:20:33.601Z,58.80
2018-07-17T23:25:36.653Z,58.90
2018-07-17T23:30:39.700Z,59.00
2018-07-17T23:35:42.743Z,59.10
2018-07-17T23:40:45.781Z,59.40
2018-07-17T23:45:48.820Z,59.40
2018-07-17T23:50:51.868Z,59.50
2018-07-17T23:55:54.901Z,59.60
